PWSweather.com
Personal Weather Stations
Station Observations
REUBENS
Camas Prairie, Reubens, ID

Camas PrairieReubens, ID

Lat: 46.35417, Lon: -116.53167

Elevation: 3480

Station Type: Davis VantagePro 2

http://www.theobrienranch.com/wx/wx.htm

High Low Average
Temperature 47.3°F8.5°F 38.8°F3.8°F 42.9°F6.1°F
Dew Point 42.7°F5.9°F 32.9°F0.5°F 37.0°F2.8°F
Winds 27.7 mph WSW44.6 mph WSW Calm Calm 11.6 mph 18.7 mph
Wind Gusts 37.0 mph59.5 mph -- 15.4 mph24.8 mph
Humidity 90% 72% 80%
Pressure 30.03 in1016.90 in 29.54 in1000.30 in -
Precipitation 0.11 in2.80 in - -
Hour Temp Dew Point Humidity Winds Wind Gusts Pressure Precip Precip Rate Daily Precip Total
01:30 AM 42.6°F5.9°C 39.9°F4.4°C 90% 12.6 mph SW20.3 kmh SW 15.0 mph24.1 kmh 29.55 in1000.7 mb 0.01 in0.3 mm 0.02 in/hr0.5 mm/hr 0.03 in0.8 mm
02:00 AM 45.6°F7.6°C 41.0°F5.0°C 84% 18.1 mph WSW29.1 kmh WSW 24.0 mph38.6 kmh 29.54 in1000.3 mb 0.02 in0.5 mm 0.04 in/hr1.0 mm/hr 0.05 in1.3 mm
02:30 AM 45.9°F7.7°C 42.2°F5.7°C 87% 20.2 mph WSW32.5 kmh WSW 27.0 mph43.5 kmh 29.55 in1000.7 mb 0.02 in0.5 mm 0.04 in/hr1.0 mm/hr 0.06 in1.5 mm
03:00 AM 46.4°F8.0°C 42.7°F5.9°C 87% 27.7 mph WSW44.6 kmh WSW 35.0 mph56.3 kmh 29.55 in1000.7 mb 0.01 in0.3 mm 0.02 in/hr0.5 mm/hr 0.07 in1.8 mm
03:30 AM 46.4°F8.0°C 42.5°F5.8°C 86% 26.4 mph W42.5 kmh W 33.0 mph53.1 kmh 29.56 in1001.0 mb 0.02 in0.5 mm 0.04 in/hr1.0 mm/hr 0.09 in2.3 mm
04:00 AM 46.9°F8.3°C 42.6°F5.9°C 85% 21.1 mph W34.0 kmh W 25.0 mph40.2 kmh 29.58 in1001.7 mb 0.00 in0.0 mm 0.00 in/hr0.0 mm/hr 0.09 in2.3 mm
04:30 AM 47.1°F8.4°C 41.3°F5.2°C 80% 23.2 mph WSW37.3 kmh WSW 26.0 mph41.8 kmh 29.60 in1002.4 mb 0.01 in0.3 mm 0.02 in/hr0.5 mm/hr 0.10 in2.5 mm
05:00 AM 47.3°F8.5°C 40.8°F4.9°C 78% 21.3 mph W34.3 kmh W 30.0 mph48.3 kmh 29.62 in1003.0 mb 0.01 in0.3 mm 0.02 in/hr0.5 mm/hr 0.11 in2.8 mm
05:30 AM 46.0°F7.8°C 40.5°F4.7°C 81% 22.5 mph WNW36.2 kmh WNW 37.0 mph59.5 kmh 29.64 in1003.7 mb 0.00 in0.0 mm 0.00 in/hr0.0 mm/hr 0.11 in2.8 mm
06:00 AM 44.7°F7.1°C 40.5°F4.7°C 85% 13.9 mph WNW22.4 kmh WNW 19.0 mph30.6 kmh 29.68 in1005.1 mb 0.01 in0.3 mm 0.02 in/hr0.5 mm/hr 0.12 in3.0 mm
06:30 AM 44.2°F6.8°C 40.3°F4.6°C 86% Calm Calm -- 29.71 in1006.1 mb 0.00 in0.0 mm 0.00 in/hr0.0 mm/hr 0.12 in3.0 mm
07:00 AM 44.2°F6.8°C 40.3°F4.6°C 86% Calm Calm -- 29.73 in1006.8 mb 0.00 in0.0 mm 0.00 in/hr0.0 mm/hr 0.12 in3.0 mm
07:30 AM 44.2°F6.8°C 40.3°F4.6°C 86% Calm Calm -- 29.76 in1007.8 mb 0.00 in0.0 mm 0.00 in/hr0.0 mm/hr 0.12 in3.0 mm
08:00 AM 44.2°F6.8°C 40.3°F4.6°C 86% Calm Calm -- 29.79 in1008.8 mb 0.00 in0.0 mm 0.00 in/hr0.0 mm/hr 0.12 in3.0 mm
08:30 AM 44.2°F6.8°C 40.3°F4.6°C 86% Calm Calm -- 29.78 in1008.5 mb 0.00 in0.0 mm 0.00 in/hr0.0 mm/hr 0.12 in3.0 mm
09:00 AM 42.7°F5.9°C 37.3°F2.9°C 81% 15.7 mph W25.3 kmh W 25.0 mph40.2 kmh 29.79 in1008.8 mb 0.00 in0.0 mm 0.00 in/hr0.0 mm/hr 0.12 in3.0 mm
09:30 AM 42.0°F5.6°C 37.2°F2.9°C 83% 7.9 mph WNW12.7 kmh WNW 9.0 mph14.5 kmh 29.81 in1009.5 mb 0.00 in0.0 mm 0.00 in/hr0.0 mm/hr 0.12 in3.0 mm
10:00 AM 42.9°F6.1°C 36.6°F2.6°C 78% 17.5 mph W28.2 kmh W 26.0 mph41.8 kmh 29.81 in1009.5 mb 0.00 in0.0 mm 0.00 in/hr0.0 mm/hr 0.12 in3.0 mm
10:30 AM 42.9°F6.1°C 36.5°F2.5°C 78% 14.1 mph W22.7 kmh W 27.0 mph43.5 kmh 29.84 in1010.5 mb 0.00 in0.0 mm 0.00 in/hr0.0 mm/hr 0.12 in3.0 mm
11:00 AM 43.1°F6.2°C 36.0°F2.2°C 76% 17.9 mph W28.8 kmh W 23.0 mph37.0 kmh 29.83 in1010.2 mb 0.00 in0.0 mm 0.00 in/hr0.0 mm/hr 0.12 in3.0 mm
11:30 AM 42.4°F5.8°C 36.3°F2.4°C 79% 10.4 mph WNW16.7 kmh WNW 15.0 mph24.1 kmh 29.85 in1010.8 mb 0.00 in0.0 mm 0.00 in/hr0.0 mm/hr 0.12 in3.0 mm
12:00 PM 42.2°F5.7°C 37.1°F2.8°C 82% 6.3 mph WNW10.1 kmh WNW 9.0 mph14.5 kmh 29.85 in1010.8 mb 0.00 in0.0 mm 0.00 in/hr0.0 mm/hr 0.12 in3.0 mm
12:30 PM 43.6°F6.4°C 36.5°F2.5°C 76% 19.0 mph W30.6 kmh W 22.0 mph35.4 kmh 29.84 in1010.5 mb 0.00 in0.0 mm 0.00 in/hr0.0 mm/hr 0.12 in3.0 mm
01:00 PM 43.5°F6.4°C 36.4°F2.4°C 76% 11.6 mph WNW18.7 kmh WNW 14.0 mph22.5 kmh 29.84 in1010.5 mb 0.00 in0.0 mm 0.00 in/hr0.0 mm/hr 0.12 in3.0 mm
01:30 PM 42.9°F6.1°C 36.5°F2.5°C 78% 10.3 mph W16.6 kmh W 13.0 mph20.9 kmh 29.84 in1010.5 mb 0.00 in0.0 mm 0.00 in/hr0.0 mm/hr 0.12 in3.0 mm
02:00 PM 42.9°F6.1°C 36.5°F2.5°C 78% 6.4 mph W10.3 kmh W 11.0 mph17.7 kmh 29.86 in1011.2 mb 0.00 in0.0 mm 0.00 in/hr0.0 mm/hr 0.12 in3.0 mm
02:30 PM 42.4°F5.8°C 36.4°F2.4°C 79% 10.1 mph WNW16.3 kmh WNW 14.0 mph22.5 kmh 29.87 in1011.5 mb 0.00 in0.0 mm 0.00 in/hr0.0 mm/hr 0.12 in3.0 mm
03:00 PM 42.3°F5.7°C 35.9°F2.2°C 78% 7.0 mph WNW11.3 kmh WNW 10.0 mph16.1 kmh 29.90 in1012.5 mb 0.00 in0.0 mm 0.00 in/hr0.0 mm/hr 0.12 in3.0 mm
03:30 PM 41.7°F5.4°C 36.0°F2.2°C 80% 4.9 mph W7.9 kmh W 6.0 mph9.7 kmh 29.91 in1012.9 mb 0.00 in0.0 mm 0.00 in/hr0.0 mm/hr 0.12 in3.0 mm
04:00 PM 41.4°F5.2°C 35.1°F1.7°C 78% 3.7 mph WNW6.0 kmh WNW 5.0 mph8.0 kmh 29.93 in1013.5 mb 0.00 in0.0 mm 0.00 in/hr0.0 mm/hr 0.12 in3.0 mm
04:30 PM 41.1°F5.1°C 34.5°F1.4°C 77% 4.5 mph W7.2 kmh W 5.0 mph8.0 kmh 29.93 in1013.5 mb 0.00 in0.0 mm 0.00 in/hr0.0 mm/hr 0.12 in3.0 mm
05:00 PM 41.1°F5.1°C 33.4°F0.8°C 74% 10.4 mph W16.7 kmh W 15.0 mph24.1 kmh 29.94 in1013.9 mb 0.00 in0.0 mm 0.00 in/hr0.0 mm/hr 0.12 in3.0 mm
05:30 PM 41.0°F5.0°C 33.3°F0.7°C 74% 4.9 mph W7.9 kmh W 5.0 mph8.0 kmh 29.95 in1014.2 mb 0.00 in0.0 mm 0.00 in/hr0.0 mm/hr 0.12 in3.0 mm
06:00 PM 40.9°F4.9°C 32.9°F0.5°C 73% 8.4 mph WNW13.5 kmh WNW 13.0 mph20.9 kmh 29.96 in1014.6 mb 0.00 in0.0 mm 0.00 in/hr0.0 mm/hr 0.12 in3.0 mm
06:30 PM 41.4°F5.2°C 33.0°F0.6°C 72% 15.0 mph W24.1 kmh W 19.0 mph30.6 kmh 29.96 in1014.6 mb 0.00 in0.0 mm 0.00 in/hr0.0 mm/hr 0.12 in3.0 mm
07:00 PM 41.4°F5.2°C 33.0°F0.6°C 72% 15.6 mph W25.1 kmh W 20.0 mph32.2 kmh 29.96 in1014.6 mb 0.00 in0.0 mm 0.00 in/hr0.0 mm/hr 0.12 in3.0 mm
07:30 PM 41.5°F5.3°C 33.1°F0.6°C 72% 14.2 mph W22.9 kmh W 17.0 mph27.4 kmh 29.97 in1014.9 mb 0.00 in0.0 mm 0.00 in/hr0.0 mm/hr 0.12 in3.0 mm
08:00 PM 41.1°F5.1°C 33.4°F0.8°C 74% 13.6 mph W21.9 kmh W 16.0 mph25.7 kmh 29.97 in1014.9 mb 0.00 in0.0 mm 0.00 in/hr0.0 mm/hr 0.12 in3.0 mm
08:30 PM 41.1°F5.1°C 33.1°F0.6°C 73% 16.1 mph W25.9 kmh W 18.0 mph29.0 kmh 29.98 in1015.2 mb 0.00 in0.0 mm 0.00 in/hr0.0 mm/hr 0.12 in3.0 mm
09:00 PM 40.7°F4.8°C 33.4°F0.8°C 75% 12.4 mph W20.0 kmh W 17.0 mph27.4 kmh 29.99 in1015.6 mb 0.00 in0.0 mm 0.00 in/hr0.0 mm/hr 0.12 in3.0 mm
09:30 PM 40.7°F4.8°C 33.4°F0.8°C 75% 15.9 mph W25.6 kmh W 20.0 mph32.2 kmh 29.98 in1015.2 mb 0.00 in0.0 mm 0.00 in/hr0.0 mm/hr 0.12 in3.0 mm
10:00 PM 40.6°F4.8°C 33.6°F0.9°C 76% 14.5 mph W23.3 kmh W 18.0 mph29.0 kmh 29.98 in1015.2 mb 0.00 in0.0 mm 0.00 in/hr0.0 mm/hr 0.12 in3.0 mm
10:30 PM 40.1°F4.5°C 33.8°F1.0°C 78% 3.8 mph NW6.1 kmh NW 6.0 mph9.7 kmh 30.02 in1016.6 mb 0.00 in0.0 mm 0.00 in/hr0.0 mm/hr 0.12 in3.0 mm
11:00 PM 39.2°F4.0°C 33.9°F1.1°C 81% 2.0 mph NW3.2 kmh NW 3.0 mph4.8 kmh 30.02 in1016.6 mb 0.00 in0.0 mm 0.00 in/hr0.0 mm/hr 0.12 in3.0 mm
11:30 PM 38.8°F3.8°C 34.1°F1.2°C 83% 2.3 mph NW3.7 kmh NW 3.0 mph4.8 kmh 30.03 in1016.9 mb 0.00 in0.0 mm 0.00 in/hr0.0 mm/hr 0.12 in3.0 mm